sensor_id;sensor_type;location;lat;lon;timestamp;pressure;altitude;pressure_sealevel;temperature;humidity
63019;BME280;49105;46.046;10.760;2022-12-10T00:00:38;94139.59;;;1.30;79.38
63019;BME280;49105;46.046;10.760;2022-12-10T00:03:12;94132.81;;;1.29;79.08
63019;BME280;49105;46.046;10.760;2022-12-10T00:05:44;94141.69;;;1.28;78.81
63019;BME280;49105;46.046;10.760;2022-12-10T00:08:09;94147.88;;;1.22;79.09
63019;BME280;49105;46.046;10.760;2022-12-10T00:10:40;94144.22;;;1.23;79.22
63019;BME280;49105;46.046;10.760;2022-12-10T00:13:06;94143.16;;;1.19;79.31
63019;BME280;49105;46.046;10.760;2022-12-10T00:15:34;94139.75;;;1.13;79.63
63019;BME280;49105;46.046;10.760;2022-12-10T00:18:03;94131.13;;;1.13;79.74
63019;BME280;49105;46.046;10.760;2022-12-10T00:20:36;94123.63;;;1.16;79.25
63019;BME280;49105;46.046;10.760;2022-12-10T00:23:11;94119.66;;;1.09;78.85
63019;BME280;49105;46.046;10.760;2022-12-10T00:25:43;94120.41;;;1.04;78.72
63019;BME280;49105;46.046;10.760;2022-12-10T00:28:14;94124.56;;;1.05;79.57
63019;BME280;49105;46.046;10.760;2022-12-10T00:30:40;94129.50;;;1.07;79.33
63019;BME280;49105;46.046;10.760;2022-12-10T00:33:11;94126.41;;;1.10;79.09
63019;BME280;49105;46.046;10.760;2022-12-10T00:35:46;94122.78;;;1.11;79.47
63019;BME280;49105;46.046;10.760;2022-12-10T00:38:18;94122.25;;;1.09;78.90
63019;BME280;49105;46.046;10.760;2022-12-10T00:40:49;94134.50;;;1.08;79.25
63019;BME280;49105;46.046;10.760;2022-12-10T00:43:21;94127.97;;;1.11;79.29
63019;BME280;49105;46.046;10.760;2022-12-10T00:45:46;94129.59;;;1.17;78.95
63019;BME280;49105;46.046;10.760;2022-12-10T00:48:12;94133.28;;;1.21;79.25
63019;BME280;49105;46.046;10.760;2022-12-10T00:50:40;94133.81;;;1.23;78.83
63019;BME280;49105;46.046;10.760;2022-12-10T00:53:12;94126.78;;;1.23;79.05
63019;BME280;49105;46.046;10.760;2022-12-10T00:55:37;94144.47;;;1.16;79.35
63019;BME280;49105;46.046;10.760;2022-12-10T00:58:03;94141.06;;;1.16;79.32
63019;BME280;49105;46.046;10.760;2022-12-10T01:00:40;94141.34;;;1.19;78.91
63019;BME280;49105;46.046;10.760;2022-12-10T01:03:18;94138.75;;;1.19;79.05
63019;BME280;49105;46.046;10.760;2022-12-10T01:05:55;94146.22;;;1.11;78.86
63019;BME280;49105;46.046;10.760;2022-12-10T01:08:27;94153.53;;;1.14;79.26
63019;BME280;49105;46.046;10.760;2022-12-10T01:11:02;94152.78;;;1.18;79.02
63019;BME280;49105;46.046;10.760;2022-12-10T01:13:27;94149.19;;;1.19;79.41
63019;BME280;49105;46.046;10.760;2022-12-10T01:16:04;94150.19;;;1.18;79.44
63019;BME280;49105;46.046;10.760;2022-12-10T01:18:31;94146.50;;;1.14;79.24
63019;BME280;49105;46.046;10.760;2022-12-10T01:21:01;94149.91;;;1.15;79.02
63019;BME280;49105;46.046;10.760;2022-12-10T01:23:38;94141.59;;;1.18;79.18
63019;BME280;49105;46.046;10.760;2022-12-10T01:26:09;94135.09;;;1.20;79.41
63019;BME280;49105;46.046;10.760;2022-12-10T01:28:44;94137.41;;;1.17;79.47
63019;BME280;49105;46.046;10.760;2022-12-10T01:31:33;94138.19;;;1.17;79.00
63019;BME280;49105;46.046;10.760;2022-12-10T01:33:59;94137.72;;;1.20;78.66
63019;BME280;49105;46.046;10.760;2022-12-10T01:36:30;94138.75;;;1.19;79.65
63019;BME280;49105;46.046;10.760;2022-12-10T01:39:00;94133.78;;;1.18;79.15
63019;BME280;49105;46.046;10.760;2022-12-10T01:41:29;94141.06;;;1.16;78.94
63019;BME280;49105;46.046;10.760;2022-12-10T01:46:55;94142.81;;;1.05;79.02
63019;BME280;49105;46.046;10.760;2022-12-10T01:49:46;94134.22;;;1.10;78.98
63019;BME280;49105;46.046;10.760;2022-12-10T01:52:12;94140.22;;;1.10;79.45
63019;BME280;49105;46.046;10.760;2022-12-10T01:54:45;94149.09;;;1.09;79.23
63019;BME280;49105;46.046;10.760;2022-12-10T01:57:20;94141.56;;;1.13;79.21
63019;BME280;49105;46.046;10.760;2022-12-10T01:59:53;94136.81;;;1.05;79.27
63019;BME280;49105;46.046;10.760;2022-12-10T02:02:51;94146.16;;;1.01;79.36
63019;BME280;49105;46.046;10.760;2022-12-10T02:05:36;94141.94;;;0.94;79.21
63019;BME280;49105;46.046;10.760;2022-12-10T02:08:26;94140.38;;;0.93;79.59
63019;BME280;49105;46.046;10.760;2022-12-10T02:16:28;94128.44;;;1.03;79.72
63019;BME280;49105;46.046;10.760;2022-12-10T02:21:45;94134.47;;;1.03;79.33
63019;BME280;49105;46.046;10.760;2022-12-10T02:24:27;94129.81;;;1.10;79.42
63019;BME280;49105;46.046;10.760;2022-12-10T02:27:03;94132.69;;;1.14;79.87
63019;BME280;49105;46.046;10.760;2022-12-10T02:29:33;94130.38;;;1.17;79.74
63019;BME280;49105;46.046;10.760;2022-12-10T02:34:35;94123.84;;;1.15;79.05
63019;BME280;49105;46.046;10.760;2022-12-10T02:40:26;94107.72;;;1.18;79.76
63019;BME280;49105;46.046;10.760;2022-12-10T02:42:55;94114.00;;;1.22;79.32
63019;BME280;49105;46.046;10.760;2022-12-10T02:45:24;94105.69;;;1.25;79.26
63019;BME280;49105;46.046;10.760;2022-12-10T02:48:02;94099.19;;;1.28;78.97
63019;BME280;49105;46.046;10.760;2022-12-10T02:50:31;94103.66;;;1.32;78.91
63019;BME280;49105;46.046;10.760;2022-12-10T02:53:00;94102.09;;;1.36;79.36
63019;BME280;49105;46.046;10.760;2022-12-10T03:02:10;94098.63;;;1.20;78.99
63019;BME280;49105;46.046;10.760;2022-12-10T03:07:18;94095.22;;;1.20;79.30
63019;BME280;49105;46.046;10.760;2022-12-10T03:09:53;94103.06;;;1.20;79.13
63019;BME280;49105;46.046;10.760;2022-12-10T03:12:39;94086.41;;;1.26;79.31
63019;BME280;49105;46.046;10.760;2022-12-10T03:15:09;94092.19;;;1.33;79.10
63019;BME280;49105;46.046;10.760;2022-12-10T03:17:43;94088.53;;;1.34;79.07
63019;BME280;49105;46.046;10.760;2022-12-10T03:20:17;94095.81;;;1.32;78.92
63019;BME280;49105;46.046;10.760;2022-12-10T03:22:51;94093.75;;;1.34;79.58
63019;BME280;49105;46.046;10.760;2022-12-10T03:25:26;94092.19;;;1.33;79.03
63019;BME280;49105;46.046;10.760;2022-12-10T03:27:59;94086.69;;;1.35;79.02
63019;BME280;49105;46.046;10.760;2022-12-10T03:30:32;94089.03;;;1.31;79.11
63019;BME280;49105;46.046;10.760;2022-12-10T03:32:59;94089.03;;;1.31;79.47
63019;BME280;49105;46.046;10.760;2022-12-10T03:35:29;94086.41;;;1.31;78.98
63019;BME280;49105;46.046;10.760;2022-12-10T03:38:02;94081.47;;;1.30;79.36
63019;BME280;49105;46.046;10.760;2022-12-10T03:40:30;94082.53;;;1.34;79.23
63019;BME280;49105;46.046;10.760;2022-12-10T03:43:02;94082.28;;;1.35;78.98
63019;BME280;49105;46.046;10.760;2022-12-10T03:45:27;94077.03;;;1.30;79.37
63019;BME280;49105;46.046;10.760;2022-12-10T03:47:59;94088.69;;;1.17;79.03
63019;BME280;49105;46.046;10.760;2022-12-10T03:50:25;94086.34;;;1.16;79.81
63019;BME280;49105;46.046;10.760;2022-12-10T03:53:02;94076.72;;;1.21;79.27
63019;BME280;49105;46.046;10.760;2022-12-10T03:55:28;94090.03;;;1.25;79.42
63019;BME280;49105;46.046;10.760;2022-12-10T03:57:53;94079.84;;;1.18;79.66
63019;BME280;49105;46.046;10.760;2022-12-10T04:00:19;94086.66;;;1.24;79.34
63019;BME280;49105;46.046;10.760;2022-12-10T04:02:53;94075.47;;;1.29;79.09
63019;BME280;49105;46.046;10.760;2022-12-10T04:05:28;94073.91;;;1.28;79.07
63019;BME280;49105;46.046;10.760;2022-12-10T04:08:02;94079.13;;;1.28;79.50
63019;BME280;49105;46.046;10.760;2022-12-10T04:10:37;94060.63;;;1.30;79.49
63019;BME280;49105;46.046;10.760;2022-12-10T04:13:15;94058.78;;;1.30;79.42
63019;BME280;49105;46.046;10.760;2022-12-10T04:19:21;94062.13;;;1.20;79.33
63019;BME280;49105;46.046;10.760;2022-12-10T04:21:48;94059.28;;;1.22;79.06
63019;BME280;49105;46.046;10.760;2022-12-10T04:24:34;94054.34;;;1.26;79.79
63019;BME280;49105;46.046;10.760;2022-12-10T04:27:24;94059.84;;;1.29;79.24
63019;BME280;49105;46.046;10.760;2022-12-10T04:29:51;94061.41;;;1.30;78.93
63019;BME280;49105;46.046;10.760;2022-12-10T04:32:18;94049.16;;;1.31;78.99
63019;BME280;49105;46.046;10.760;2022-12-10T04:34:53;94051.53;;;1.32;79.26
63019;BME280;49105;46.046;10.760;2022-12-10T04:37:19;94054.63;;;1.34;79.61
63019;BME280;49105;46.046;10.760;2022-12-10T04:39:51;94050.50;;;1.38;79.04
63019;BME280;49105;46.046;10.760;2022-12-10T04:42:25;94042.66;;;1.38;78.88
63019;BME280;49105;46.046;10.760;2022-12-10T04:44:51;94036.94;;;1.36;78.75
63019;BME280;49105;46.046;10.760;2022-12-10T04:47:16;94043.66;;;1.27;79.10
63019;BME280;49105;46.046;10.760;2022-12-10T04:49:42;94043.13;;;1.25;79.47
63019;BME280;49105;46.046;10.760;2022-12-10T04:52:10;94038.41;;;1.22;79.80
63019;BME280;49105;46.046;10.760;2022-12-10T04:54:36;94035.31;;;1.20;79.55
63019;BME280;49105;46.046;10.760;2022-12-10T04:57:01;94024.63;;;1.27;79.75
63019;BME280;49105;46.046;10.760;2022-12-10T04:59:27;94030.38;;;1.29;79.31
63019;BME280;49105;46.046;10.760;2022-12-10T05:01:56;94037.94;;;1.30;79.40
63019;BME280;49105;46.046;10.760;2022-12-10T05:04:21;94039.25;;;1.28;79.03
63019;BME280;49105;46.046;10.760;2022-12-10T05:06:54;94037.44;;;1.28;79.10
63019;BME280;49105;46.046;10.760;2022-12-10T05:09:29;94039.78;;;1.30;78.61
63019;BME280;49105;46.046;10.760;2022-12-10T05:12:03;94038.69;;;1.26;79.51
63019;BME280;49105;46.046;10.760;2022-12-10T05:14:35;94032.72;;;1.25;79.35
63019;BME280;49105;46.046;10.760;2022-12-10T05:17:10;94041.84;;;1.28;79.62
63019;BME280;49105;46.046;10.760;2022-12-10T05:19:35;94044.19;;;1.29;79.49
63019;BME280;49105;46.046;10.760;2022-12-10T05:22:07;94045.75;;;1.30;79.16
63019;BME280;49105;46.046;10.760;2022-12-10T05:24:52;94044.69;;;1.26;79.55
63019;BME280;49105;46.046;10.760;2022-12-10T05:27:23;94050.19;;;1.30;79.15
63019;BME280;49105;46.046;10.760;2022-12-10T05:29:55;94043.69;;;1.32;79.16
63019;BME280;49105;46.046;10.760;2022-12-10T05:32:21;94049.41;;;1.29;79.29
63019;BME280;49105;46.046;10.760;2022-12-10T05:34:50;94046.00;;;1.23;79.52
63019;BME280;49105;46.046;10.760;2022-12-10T05:37:15;94044.69;;;1.26;79.16
63019;BME280;49105;46.046;10.760;2022-12-10T05:39:47;94043.69;;;1.32;79.11
63019;BME280;49105;46.046;10.760;2022-12-10T05:42:24;94038.50;;;1.32;78.99
63019;BME280;49105;46.046;10.760;2022-12-10T05:44:53;94044.47;;;1.33;79.60
63019;BME280;49105;46.046;10.760;2022-12-10T05:47:18;94041.59;;;1.34;79.40
63019;BME280;49105;46.046;10.760;2022-12-10T05:49:50;94036.91;;;1.31;79.25
63019;BME280;49105;46.046;10.760;2022-12-10T05:52:25;94033.50;;;1.26;79.10
63019;BME280;49105;46.046;10.760;2022-12-10T05:54:50;94030.09;;;1.25;79.47
63019;BME280;49105;46.046;10.760;2022-12-10T05:57:19;94037.44;;;1.28;79.83
63019;BME280;49105;46.046;10.760;2022-12-10T05:59:44;94036.13;;;1.31;79.44
63019;BME280;49105;46.046;10.760;2022-12-10T06:02:10;94040.06;;;1.33;79.50
63019;BME280;49105;46.046;10.760;2022-12-10T06:04:41;94028.31;;;1.36;79.07
63019;BME280;49105;46.046;10.760;2022-12-10T06:07:07;94029.63;;;1.38;79.12
63019;BME280;49105;46.046;10.760;2022-12-10T06:09:32;94024.69;;;1.37;78.79
63019;BME280;49105;46.046;10.760;2022-12-10T06:12:04;94031.19;;;1.39;79.37
63019;BME280;49105;46.046;10.760;2022-12-10T06:14:33;94032.53;;;1.42;79.41
63019;BME280;49105;46.046;10.760;2022-12-10T06:17:07;94025.75;;;1.41;78.73
63019;BME280;49105;46.046;10.760;2022-12-10T06:19:45;94027.28;;;1.37;78.99
63019;BME280;49105;46.046;10.760;2022-12-10T06:22:20;94024.16;;;1.35;79.01
63019;BME280;49105;46.046;10.760;2022-12-10T06:24:54;94022.84;;;1.32;79.44
63019;BME280;49105;46.046;10.760;2022-12-10T06:27:20;94020.47;;;1.31;79.35
63019;BME280;49105;46.046;10.760;2022-12-10T06:29:50;94019.19;;;1.28;78.72
63019;BME280;49105;46.046;10.760;2022-12-10T06:32:15;94024.91;;;1.30;79.55
63019;BME280;49105;46.046;10.760;2022-12-10T06:34:47;94029.13;;;1.36;79.74
63019;BME280;49105;46.046;10.760;2022-12-10T06:37:16;94020.53;;;1.41;79.25
63019;BME280;49105;46.046;10.760;2022-12-10T06:39:50;94024.44;;;1.38;79.37
63019;BME280;49105;46.046;10.760;2022-12-10T06:42:16;94023.91;;;1.36;78.96
63019;BME280;49105;46.046;10.760;2022-12-10T06:44:42;94028.56;;;1.29;79.12
63019;BME280;49105;46.046;10.760;2022-12-10T06:47:17;94018.91;;;1.24;78.84
63019;BME280;49105;46.046;10.760;2022-12-10T06:49:45;94015.25;;;1.26;79.62
63019;BME280;49105;46.046;10.760;2022-12-10T06:52:20;94013.44;;;1.26;79.49
63019;BME280;49105;46.046;10.760;2022-12-10T06:54:58;94014.97;;;1.27;79.18
63019;BME280;49105;46.046;10.760;2022-12-10T06:57:29;94011.09;;;1.30;79.46
63019;BME280;49105;46.046;10.760;2022-12-10T07:00:08;94009.00;;;1.27;79.61
63019;BME280;49105;46.046;10.760;2022-12-10T07:02:39;94012.91;;;1.24;79.56
63019;BME280;49105;46.046;10.760;2022-12-10T07:05:11;94019.69;;;1.25;79.31
63019;BME280;49105;46.046;10.760;2022-12-10T07:07:36;94021.25;;;1.26;79.14
63019;BME280;49105;46.046;10.760;2022-12-10T07:10:11;94017.34;;;1.29;79.74
63019;BME280;49105;46.046;10.760;2022-12-10T07:12:37;94021.81;;;1.33;79.47
63019;BME280;49105;46.046;10.760;2022-12-10T07:15:03;94017.88;;;1.36;79.10
63019;BME280;49105;46.046;10.760;2022-12-10T07:17:32;94031.19;;;1.34;79.26
63019;BME280;49105;46.046;10.760;2022-12-10T07:20:04;94024.91;;;1.30;79.41
63019;BME280;49105;46.046;10.760;2022-12-10T07:22:35;94021.25;;;1.31;79.22
63019;BME280;49105;46.046;10.760;2022-12-10T07:25:04;94017.88;;;1.36;79.59
63019;BME280;49105;46.046;10.760;2022-12-10T07:27:38;94017.41;;;1.44;79.50
63019;BME280;49105;46.046;10.760;2022-12-10T07:33:25;94006.22;;;1.48;79.25
63019;BME280;49105;46.046;10.760;2022-12-10T07:36:08;94009.34;;;1.45;79.05
63019;BME280;49105;46.046;10.760;2022-12-10T07:38:40;94015.84;;;1.48;79.08
63019;BME280;49105;46.046;10.760;2022-12-10T07:41:09;94016.13;;;1.52;79.40
63019;BME280;49105;46.046;10.760;2022-12-10T07:43:42;94020.34;;;1.58;78.98
63019;BME280;49105;46.046;10.760;2022-12-10T07:46:27;94023.47;;;1.60;78.75
63019;BME280;49105;46.046;10.760;2022-12-10T07:49:02;94022.19;;;1.62;78.81
63019;BME280;49105;46.046;10.760;2022-12-10T07:51:37;94024.00;;;1.62;78.95
63019;BME280;49105;46.046;10.760;2022-12-10T07:54:02;94025.56;;;1.58;78.68
63019;BME280;49105;46.046;10.760;2022-12-10T07:56:28;94016.41;;;1.55;79.25
63019;BME280;49105;46.046;10.760;2022-12-10T07:58:54;94025.28;;;1.54;79.64
63019;BME280;49105;46.046;10.760;2022-12-10T08:01:28;94027.59;;;1.51;79.36
63019;BME280;49105;46.046;10.760;2022-12-10T08:04:12;94030.97;;;1.46;79.02
63019;BME280;49105;46.046;10.760;2022-12-10T08:06:47;94021.34;;;1.46;79.49
63019;BME280;49105;46.046;10.760;2022-12-10T08:09:15;94023.94;;;1.46;79.64
63019;BME280;49105;46.046;10.760;2022-12-10T08:11:47;94021.06;;;1.48;79.27
63019;BME280;49105;46.046;10.760;2022-12-10T08:14:21;94031.00;;;1.51;79.05
63019;BME280;49105;46.046;10.760;2022-12-10T08:16:53;94031.28;;;1.55;79.27
63019;BME280;49105;46.046;10.760;2022-12-10T08:19:28;94036.25;;;1.61;79.24
63019;BME280;49105;46.046;10.760;2022-12-10T08:21:53;94030.50;;;1.64;79.64
63019;BME280;49105;46.046;10.760;2022-12-10T08:24:25;94026.13;;;1.75;79.49
63019;BME280;49105;46.046;10.760;2022-12-10T08:26:56;94026.13;;;1.75;79.37
63019;BME280;49105;46.046;10.760;2022-12-10T08:29:22;94031.34;;;1.75;78.95
63019;BME280;49105;46.046;10.760;2022-12-10T08:31:56;94034.72;;;1.70;79.32
63019;BME280;49105;46.046;10.760;2022-12-10T08:34:28;94029.28;;;1.77;79.10
63019;BME280;49105;46.046;10.760;2022-12-10T08:36:59;94019.38;;;1.84;79.03
63019;BME280;49105;46.046;10.760;2022-12-10T08:39:25;94011.81;;;1.83;78.90
63019;BME280;49105;46.046;10.760;2022-12-10T08:41:53;94013.34;;;1.79;79.37
63019;BME280;49105;46.046;10.760;2022-12-10T08:44:25;94017.78;;;1.73;79.24
63019;BME280;49105;46.046;10.760;2022-12-10T08:46:50;94021.44;;;1.77;79.54
63019;BME280;49105;46.046;10.760;2022-12-10T08:49:16;94015.69;;;1.80;79.41
63019;BME280;49105;46.046;10.760;2022-12-10T08:51:47;94019.13;;;1.86;79.53
63019;BME280;49105;46.046;10.760;2022-12-10T08:54:22;94011.81;;;1.93;79.59
63019;BME280;49105;46.046;10.760;2022-12-10T08:56:56;94014.69;;;1.96;79.13
63019;BME280;49105;46.046;10.760;2022-12-10T08:59:25;94011.56;;;1.99;79.18
63019;BME280;49105;46.046;10.760;2022-12-10T09:02:00;94025.41;;;2.05;79.24
63019;BME280;49105;46.046;10.760;2022-12-10T09:04:25;94018.34;;;2.06;79.07
63019;BME280;49105;46.046;10.760;2022-12-10T09:10:12;94022.00;;;2.10;79.19
63019;BME280;49105;46.046;10.760;2022-12-10T09:12:38;94015.25;;;2.09;79.16
63019;BME280;49105;46.046;10.760;2022-12-10T09:15:10;94021.78;;;2.11;79.22
63019;BME280;49105;46.046;10.760;2022-12-10T09:17:44;94016.06;;;2.14;78.90
63019;BME280;49105;46.046;10.760;2022-12-10T09:20:10;94012.66;;;2.19;78.93
63019;BME280;49105;46.046;10.760;2022-12-10T09:22:41;94003.00;;;2.24;79.17
63019;BME280;49105;46.046;10.760;2022-12-10T09:25:13;94001.97;;;2.31;78.80
63019;BME280;49105;46.046;10.760;2022-12-10T09:27:46;94001.16;;;2.30;78.67
63019;BME280;49105;46.046;10.760;2022-12-10T09:30:12;94001.16;;;2.30;78.78
63019;BME280;49105;46.046;10.760;2022-12-10T09:32:37;93999.09;;;2.32;78.94
63019;BME280;49105;46.046;10.760;2022-12-10T09:35:09;94004.31;;;2.32;78.89
63019;BME280;49105;46.046;10.760;2022-12-10T09:37:34;94008.47;;;2.28;78.94
63019;BME280;49105;46.046;10.760;2022-12-10T09:40:00;94009.78;;;2.26;78.78
63019;BME280;49105;46.046;10.760;2022-12-10T09:53:12;93985.25;;;2.32;78.84
63019;BME280;49105;46.046;10.760;2022-12-10T09:55:46;93994.66;;;2.28;78.85
63019;BME280;49105;46.046;10.760;2022-12-10T09:58:21;93976.13;;;2.24;79.01
63019;BME280;49105;46.046;10.760;2022-12-10T10:00:51;93978.22;;;2.27;79.19
63019;BME280;49105;46.046;10.760;2022-12-10T10:03:19;93976.66;;;2.31;79.15
63019;BME280;49105;46.046;10.760;2022-12-10T10:05:57;93968.81;;;2.36;78.87
63019;BME280;49105;46.046;10.760;2022-12-10T10:08:47;93974.56;;;2.43;78.74
63019;BME280;49105;46.046;10.760;2022-12-10T10:11:24;93968.28;;;2.44;78.96
63019;BME280;49105;46.046;10.760;2022-12-10T10:14:12;93967.75;;;2.42;78.71
63019;BME280;49105;46.046;10.760;2022-12-10T10:16:44;93963.06;;;2.44;78.78
63019;BME280;49105;46.046;10.760;2022-12-10T10:19:19;93963.06;;;2.39;78.45
63019;BME280;49105;46.046;10.760;2022-12-10T10:22:00;93958.38;;;2.36;78.81
63019;BME280;49105;46.046;10.760;2022-12-10T10:24:37;93947.91;;;2.36;78.85
63019;BME280;49105;46.046;10.760;2022-12-10T10:27:19;93944.25;;;2.37;78.88
63019;BME280;49105;46.046;10.760;2022-12-10T10:29:54;93937.47;;;2.41;79.03
63019;BME280;49105;46.046;10.760;2022-12-10T10:32:30;93942.69;;;2.46;79.18
63019;BME280;49105;46.046;10.760;2022-12-10T10:35:34;93947.13;;;2.51;78.87
63019;BME280;49105;46.046;10.760;2022-12-10T10:38:23;93933.28;;;2.61;78.72
63019;BME280;49105;46.046;10.760;2022-12-10T10:41:03;93930.13;;;2.59;78.62
63019;BME280;49105;46.046;10.760;2022-12-10T10:46:57;93931.47;;;2.51;78.79
63019;BME280;49105;46.046;10.760;2022-12-10T10:49:28;93923.88;;;2.49;78.63
63019;BME280;49105;46.046;10.760;2022-12-10T10:52:12;93914.47;;;2.54;78.94
63019;BME280;49105;46.046;10.760;2022-12-10T10:54:41;93912.66;;;2.59;78.69
63019;BME280;49105;46.046;10.760;2022-12-10T11:00:18;93911.84;;;2.54;78.49
63019;BME280;49105;46.046;10.760;2022-12-10T11:02:44;93910.31;;;2.53;78.98
63019;BME280;49105;46.046;10.760;2022-12-10T11:05:29;93910.81;;;2.60;78.85
63019;BME280;49105;46.046;10.760;2022-12-10T11:08:04;93908.69;;;2.67;78.79
63019;BME280;49105;46.046;10.760;2022-12-10T11:10:33;93903.72;;;2.70;78.66
63019;BME280;49105;46.046;10.760;2022-12-10T11:13:07;93899.03;;;2.72;78.57
63019;BME280;49105;46.046;10.760;2022-12-10T11:15:43;93897.19;;;2.73;78.50
63019;BME280;49105;46.046;10.760;2022-12-10T11:18:26;93898.25;;;2.72;78.68
63019;BME280;49105;46.046;10.760;2022-12-10T11:21:06;93896.41;;;2.67;78.56
63019;BME280;49105;46.046;10.760;2022-12-10T11:23:46;93899.81;;;2.63;78.71
63019;BME280;49105;46.046;10.760;2022-12-10T11:29:05;93893.56;;;2.69;78.71
63019;BME280;49105;46.046;10.760;2022-12-10T11:31:55;93887.78;;;2.77;78.78
63019;BME280;49105;46.046;10.760;2022-12-10T11:37:29;93879.41;;;2.80;78.49
63019;BME280;49105;46.046;10.760;2022-12-10T11:42:52;93857.97;;;2.83;78.80
63019;BME280;49105;46.046;10.760;2022-12-10T11:48:27;93854.50;;;2.98;78.74
63019;BME280;49105;46.046;10.760;2022-12-10T11:51:00;93855.78;;;3.06;78.50
63019;BME280;49105;46.046;10.760;2022-12-10T12:02:03;93853.69;;;3.13;78.56
63019;BME280;49105;46.046;10.760;2022-12-10T12:05:17;93845.22;;;3.26;78.57
63019;BME280;49105;46.046;10.760;2022-12-10T12:13:13;93847.03;;;3.31;78.05
63019;BME280;49105;46.046;10.760;2022-12-10T12:15:51;93843.41;;;3.27;78.35
63019;BME280;49105;46.046;10.760;2022-12-10T12:24:22;93837.84;;;3.33;78.36
63019;BME280;49105;46.046;10.760;2022-12-10T12:27:27;93820.56;;;3.37;78.26
63019;BME280;49105;46.046;10.760;2022-12-10T12:30:14;93817.94;;;3.42;78.25
63019;BME280;49105;46.046;10.760;2022-12-10T12:32:54;93816.31;;;3.52;78.12
63019;BME280;49105;46.046;10.760;2022-12-10T12:35:41;93816.31;;;3.52;78.12
63019;BME280;49105;46.046;10.760;2022-12-10T12:45:59;93812.66;;;3.47;78.28
63019;BME280;49105;46.046;10.760;2022-12-10T12:53:48;93794.59;;;3.51;77.98
63019;BME280;49105;46.046;10.760;2022-12-10T12:59:11;93790.38;;;3.55;77.51
63019;BME280;49105;46.046;10.760;2022-12-10T13:01:49;93787.00;;;3.55;78.05
63019;BME280;49105;46.046;10.760;2022-12-10T13:04:19;93785.41;;;3.59;77.98
63019;BME280;49105;46.046;10.760;2022-12-10T13:09:48;93772.75;;;3.71;77.78
63019;BME280;49105;46.046;10.760;2022-12-10T13:17:36;93760.16;;;3.73;77.83
63019;BME280;49105;46.046;10.760;2022-12-10T13:22:59;93755.47;;;3.70;77.84
63019;BME280;49105;46.046;10.760;2022-12-10T13:41:38;93750.47;;;3.73;77.64
63019;BME280;49105;46.046;10.760;2022-12-10T14:02:01;93750.78;;;3.67;77.16
63019;BME280;49105;46.046;10.760;2022-12-10T14:07:21;93758.03;;;3.46;77.44
63019;BME280;49105;46.046;10.760;2022-12-10T14:09:57;93745.75;;;3.41;77.82
63019;BME280;49105;46.046;10.760;2022-12-10T14:12:32;93742.38;;;3.41;77.85
63019;BME280;49105;46.046;10.760;2022-12-10T14:15:25;93749.66;;;3.44;77.95
63019;BME280;49105;46.046;10.760;2022-12-10T14:18:13;93751.75;;;3.47;77.59
63019;BME280;49105;46.046;10.760;2022-12-10T14:20:52;93763.47;;;3.49;77.82
63019;BME280;49105;46.046;10.760;2022-12-10T14:23:32;93770.53;;;3.49;77.88
63019;BME280;49105;46.046;10.760;2022-12-10T14:26:09;93765.53;;;3.53;77.91
63019;BME280;49105;46.046;10.760;2022-12-10T14:28:47;93762.63;;;3.59;77.78
63019;BME280;49105;46.046;10.760;2022-12-10T14:31:19;93762.34;;;3.61;77.49
63019;BME280;49105;46.046;10.760;2022-12-10T14:33:55;93757.13;;;3.61;77.48
63019;BME280;49105;46.046;10.760;2022-12-10T14:36:34;93755.59;;;3.55;77.27
63019;BME280;49105;46.046;10.760;2022-12-10T14:39:00;93757.22;;;3.45;77.40
63019;BME280;49105;46.046;10.760;2022-12-10T14:41:35;93768.28;;;3.37;77.36
63019;BME280;49105;46.046;10.760;2022-12-10T14:44:11;93770.19;;;3.27;77.42
63019;BME280;49105;46.046;10.760;2022-12-10T14:46:42;93768.97;;;3.14;77.75
63019;BME280;49105;46.046;10.760;2022-12-10T14:49:19;93774.50;;;3.07;78.03
63019;BME280;49105;46.046;10.760;2022-12-10T14:51:45;93777.38;;;3.06;77.89
63019;BME280;49105;46.046;10.760;2022-12-10T14:54:34;93779.72;;;3.07;78.13
63019;BME280;49105;46.046;10.760;2022-12-10T14:57:05;93776.84;;;3.09;78.04
63019;BME280;49105;46.046;10.760;2022-12-10T14:59:43;93782.84;;;3.09;77.98
63019;BME280;49105;46.046;10.760;2022-12-10T15:02:24;93786.50;;;3.08;78.07
63019;BME280;49105;46.046;10.760;2022-12-10T15:05:01;93781.59;;;3.02;77.93
63019;BME280;49105;46.046;10.760;2022-12-10T15:07:36;93785.31;;;2.90;78.11
63019;BME280;49105;46.046;10.760;2022-12-10T15:10:18;93789.00;;;2.84;78.37
63019;BME280;49105;46.046;10.760;2022-12-10T15:12:47;93792.69;;;2.78;78.10
63019;BME280;49105;46.046;10.760;2022-12-10T15:15:24;93792.72;;;2.73;78.27
63019;BME280;49105;46.046;10.760;2022-12-10T15:20:37;93795.81;;;2.75;78.38
63019;BME280;49105;46.046;10.760;2022-12-10T15:28:40;93797.66;;;2.74;78.43
63019;BME280;49105;46.046;10.760;2022-12-10T15:34:10;93812.81;;;2.67;78.37
63019;BME280;49105;46.046;10.760;2022-12-10T15:37:20;93810.53;;;2.61;78.65
63019;BME280;49105;46.046;10.760;2022-12-10T15:39:57;93805.56;;;2.59;78.50
63019;BME280;49105;46.046;10.760;2022-12-10T15:42:39;93812.09;;;2.57;78.25
63019;BME280;49105;46.046;10.760;2022-12-10T15:45:25;93809.78;;;2.55;78.41
63019;BME280;49105;46.046;10.760;2022-12-10T15:47:59;93815.78;;;2.56;78.72
63019;BME280;49105;46.046;10.760;2022-12-10T15:50:26;93817.31;;;2.57;78.62
63019;BME280;49105;46.046;10.760;2022-12-10T15:53:00;93818.06;;;2.62;78.63
63019;BME280;49105;46.046;10.760;2022-12-10T15:55:26;93812.81;;;2.67;78.73
63019;BME280;49105;46.046;10.760;2022-12-10T15:58:00;93819.34;;;2.70;78.68
63019;BME280;49105;46.046;10.760;2022-12-10T16:00:32;93813.34;;;2.69;78.48
63019;BME280;49105;46.046;10.760;2022-12-10T16:03:02;93821.97;;;2.70;78.75
63019;BME280;49105;46.046;10.760;2022-12-10T16:05:36;93820.69;;;2.62;78.59
63019;BME280;49105;46.046;10.760;2022-12-10T16:08:25;93823.09;;;2.48;78.66
63019;BME280;49105;46.046;10.760;2022-12-10T16:10:58;93829.38;;;2.42;78.94